Time;durP1;ratioP1;P1;durP2;ratioP2;P2;SDS_P1;SDS_P2;PMS_P1;PMS_P2;Temp;Humidity;BMP_temperature;BMP_pressure;BME280_temperature;BME280_humidity;BME280_pressure;Samples;Min_cycle;Max_cycle;Signal;HPM_P1;HPM_P2
2021/07/27 00:01:08;;;;;;;14.73;6.40;;;;;;;;;;4970880;28;20018;-74
2021/07/27 00:03:34;;;;;;;10.50;6.75;;;;;;;;;;4966934;28;20035;-77
2021/07/27 00:05:59;;;;;;;9.95;6.72;;;;;;;;;;4971513;28;20042;-77
2021/07/27 00:08:25;;;;;;;12.40;6.68;;;;;;;;;;4971539;28;20031;-77
2021/07/27 00:10:50;;;;;;;15.13;6.82;;;;;;;;;;4971881;28;20405;-77
2021/07/27 00:13:16;;;;;;;13.50;7.05;;;;;;;;;;4971824;28;20074;-78
2021/07/27 00:15:42;;;;;;;12.23;7.55;;;;;;;;;;4970715;28;20026;-77
2021/07/27 00:18:08;;;;;;;14.00;7.15;;;;;;;;;;4971392;28;20383;-77
2021/07/27 00:20:33;;;;;;;16.20;7.38;;;;;;;;;;4970845;28;20030;-78
2021/07/27 00:22:59;;;;;;;11.75;7.43;;;;;;;;;;4970079;28;20041;-77
2021/07/27 00:25:24;;;;;;;15.45;7.15;;;;;;;;;;4972162;28;20029;-77
2021/07/27 00:27:50;;;;;;;14.18;7.40;;;;;;;;;;4971222;28;20077;-77
2021/07/27 00:30:15;;;;;;;13.73;6.95;;;;;;;;;;4971578;28;20379;-77
2021/07/27 00:32:43;;;;;;;11.63;6.85;;;;;;;;;;4971837;28;20110;-77
2021/07/27 00:35:11;;;;;;;16.33;7.00;;;;;;;;;;4971364;28;20135;-77
2021/07/27 00:37:47;;;;;;;16.63;7.43;;;;;;;;;;4972291;28;20719;-77
2021/07/27 00:40:14;;;;;;;15.40;7.13;;;;;;;;;;4970337;28;20054;-77
2021/07/27 00:42:43;;;;;;;14.10;7.53;;;;;;;;;;4971315;28;20119;-77
2021/07/27 00:45:09;;;;;;;17.30;7.35;;;;;;;;;;4971638;28;20041;-77
2021/07/27 00:47:34;;;;;;;17.90;7.68;;;;;;;;;;4963725;28;20073;-77
2021/07/27 00:50:00;;;;;;;13.10;7.60;;;;;;;;;;4971332;28;20058;-77
2021/07/27 00:52:25;;;;;;;13.32;7.72;;;;;;;;;;4971780;28;20031;-77
2021/07/27 00:54:51;;;;;;;11.50;7.05;;;;;;;;;;4971311;28;20022;-77
2021/07/27 00:57:16;;;;;;;13.77;7.13;;;;;;;;;;4971163;28;20474;-77
2021/07/27 00:59:43;;;;;;;9.70;7.32;;;;;;;;;;4971094;28;20054;-77
2021/07/27 01:02:08;;;;;;;12.98;8.05;;;;;;;;;;4969896;28;20032;-77
2021/07/27 01:04:34;;;;;;;10.63;7.53;;;;;;;;;;4970351;28;20105;-77
2021/07/27 01:06:59;;;;;;;14.70;7.50;;;;;;;;;;4971144;28;20419;-78
2021/07/27 01:09:26;;;;;;;13.13;7.95;;;;;;;;;;4971358;28;20022;-77
2021/07/27 01:11:51;;;;;;;20.98;7.78;;;;;;;;;;4971289;28;20535;-77
2021/07/27 01:14:16;;;;;;;15.95;7.72;;;;;;;;;;4971350;28;20114;-78
2021/07/27 01:16:42;;;;;;;13.95;7.78;;;;;;;;;;4970260;28;20050;-77
2021/07/27 01:43:18;;;;;;;14.20;8.23;;;;;;;;;;4976397;28;20083;-77
2021/07/27 01:45:44;;;;;;;19.05;8.15;;;;;;;;;;4974971;28;20058;-77
2021/07/27 01:48:09;;;;;;;18.92;8.25;;;;;;;;;;4974161;28;20046;-77
2021/07/27 01:50:35;;;;;;;15.18;8.57;;;;;;;;;;4975001;28;20455;-78
2021/07/27 01:53:04;;;;;;;12.18;8.77;;;;;;;;;;4981206;28;20401;-77
2021/07/27 01:55:34;;;;;;;15.32;9.32;;;;;;;;;;4974608;28;20118;-77
2021/07/27 01:58:00;;;;;;;16.63;8.73;;;;;;;;;;4974511;28;20097;-77
2021/07/27 02:00:26;;;;;;;14.57;8.85;;;;;;;;;;4973504;28;20386;-77
2021/07/27 02:02:51;;;;;;;20.73;8.57;;;;;;;;;;4974592;28;20030;-77
2021/07/27 02:05:17;;;;;;;15.55;8.63;;;;;;;;;;4973856;28;20066;-77
2021/07/27 02:07:55;;;;;;;19.50;9.40;;;;;;;;;;4974391;28;20443;-77
2021/07/27 02:10:22;;;;;;;16.42;8.32;;;;;;;;;;4974322;28;20403;-77
2021/07/27 02:13:12;;;;;;;13.02;8.90;;;;;;;;;;4974409;28;20022;-77
2021/07/27 02:15:44;;;;;;;16.20;8.98;;;;;;;;;;4973810;28;20383;-77
2021/07/27 02:18:10;;;;;;;16.40;8.90;;;;;;;;;;4972855;28;20066;-77
2021/07/27 02:20:36;;;;;;;18.13;9.13;;;;;;;;;;4974356;28;20058;-77
2021/07/27 02:23:03;;;;;;;18.38;8.98;;;;;;;;;;4974194;28;20110;-77
2021/07/27 02:25:29;;;;;;;15.25;9.23;;;;;;;;;;4974411;28;20062;-77
2021/07/27 02:27:56;;;;;;;15.32;9.52;;;;;;;;;;4973892;28;20318;-77
2021/07/27 02:30:21;;;;;;;16.13;9.63;;;;;;;;;;4973886;28;20105;-77
2021/07/27 02:32:46;;;;;;;22.17;9.27;;;;;;;;;;4973924;28;20117;-77
2021/07/27 02:35:12;;;;;;;14.57;8.65;;;;;;;;;;4973530;28;20078;-77
2021/07/27 02:37:39;;;;;;;21.90;9.30;;;;;;;;;;4973737;28;20030;-77
2021/07/27 02:40:05;;;;;;;16.23;9.45;;;;;;;;;;4973990;28;20033;-77
2021/07/27 02:42:31;;;;;;;17.30;9.95;;;;;;;;;;4979857;28;20031;-77
2021/07/27 02:44:56;;;;;;;18.85;8.88;;;;;;;;;;4973683;28;20038;-77
2021/07/27 02:47:24;;;;;;;21.40;10.07;;;;;;;;;;4973593;28;20030;-77
2021/07/27 02:49:50;;;;;;;24.58;9.45;;;;;;;;;;4973496;28;20474;-77
2021/07/27 02:52:15;;;;;;;16.33;8.85;;;;;;;;;;4979738;28;20170;-77
2021/07/27 02:54:41;;;;;;;16.98;9.85;;;;;;;;;;4973744;28;20363;-77
2021/07/27 02:57:06;;;;;;;14.90;8.82;;;;;;;;;;4973688;28;20105;-77
2021/07/27 02:59:31;;;;;;;15.20;8.75;;;;;;;;;;4973711;28;20030;-76
2021/07/27 03:01:57;;;;;;;13.88;9.23;;;;;;;;;;4973399;28;20023;-77
2021/07/27 03:04:22;;;;;;;14.23;8.77;;;;;;;;;;4965189;28;20102;-77
2021/07/27 03:06:48;;;;;;;16.27;8.98;;;;;;;;;;4973328;28;20038;-77
2021/07/27 03:09:15;;;;;;;18.60;9.60;;;;;;;;;;4973562;28;20478;-77
2021/07/27 03:11:41;;;;;;;17.67;9.45;;;;;;;;;;4973554;28;20023;-77
2021/07/27 03:14:07;;;;;;;18.25;9.77;;;;;;;;;;4973064;28;20035;-78
2021/07/27 03:16:33;;;;;;;17.58;9.55;;;;;;;;;;4973435;28;20023;-77
2021/07/27 03:18:58;;;;;;;15.82;9.38;;;;;;;;;;4972769;28;20027;-77
2021/07/27 03:21:25;;;;;;;18.25;9.70;;;;;;;;;;4972864;28;20041;-77
2021/07/27 03:23:51;;;;;;;16.48;9.50;;;;;;;;;;4973092;28;20029;-77
2021/07/27 03:26:19;;;;;;;19.73;9.80;;;;;;;;;;4972966;28;20122;-77
2021/07/27 03:28:45;;;;;;;17.13;9.50;;;;;;;;;;4972919;28;20093;-77
2021/07/27 03:31:10;;;;;;;18.00;9.60;;;;;;;;;;4972742;28;20050;-77
2021/07/27 03:33:36;;;;;;;16.63;9.77;;;;;;;;;;4972658;28;20474;-77
2021/07/27 03:36:01;;;;;;;17.77;9.48;;;;;;;;;;4972750;28;20023;-77
2021/07/27 03:38:27;;;;;;;24.00;10.27;;;;;;;;;;4972763;28;20109;-77
2021/07/27 03:41:01;;;;;;;17.15;9.68;;;;;;;;;;4972972;28;20026;-78
2021/07/27 03:43:27;;;;;;;14.73;9.65;;;;;;;;;;4975892;28;20393;-77
2021/07/27 03:45:52;;;;;;;17.77;9.95;;;;;;;;;;4972543;28;20035;-77
2021/07/27 03:48:17;;;;;;;19.05;9.85;;;;;;;;;;4967225;28;20521;-77
2021/07/27 03:50:43;;;;;;;19.15;10.35;;;;;;;;;;4972541;28;20046;-77
2021/07/27 03:53:13;;;;;;;18.25;9.90;;;;;;;;;;4976043;28;20053;-77
2021/07/27 03:55:39;;;;;;;16.55;10.23;;;;;;;;;;4972494;28;20395;-77
2021/07/27 03:58:04;;;;;;;17.30;10.68;;;;;;;;;;4972170;28;20019;-77
2021/07/27 04:00:32;;;;;;;20.10;10.63;;;;;;;;;;4967837;28;20467;-77
2021/07/27 04:02:58;;;;;;;22.90;10.77;;;;;;;;;;4972115;28;20031;-77
2021/07/27 04:05:23;;;;;;;23.60;10.35;;;;;;;;;;4972293;28;20035;-77
2021/07/27 04:07:48;;;;;;;18.38;10.27;;;;;;;;;;4972182;28;20051;-77
2021/07/27 04:10:14;;;;;;;24.77;10.57;;;;;;;;;;4971877;28;20023;-77
2021/07/27 04:12:39;;;;;;;19.05;11.00;;;;;;;;;;4971544;28;20030;-77
2021/07/27 04:15:07;;;;;;;18.83;10.10;;;;;;;;;;4971744;28;20077;-77
2021/07/27 04:17:33;;;;;;;21.65;10.30;;;;;;;;;;4971974;28;20387;-77
2021/07/27 04:19:58;;;;;;;19.45;10.95;;;;;;;;;;4971291;28;20030;-77
2021/07/27 04:22:24;;;;;;;20.17;10.68;;;;;;;;;;4971904;28;20126;-77
2021/07/27 04:24:49;;;;;;;18.27;10.70;;;;;;;;;;4972264;28;20027;-77
2021/07/27 04:27:22;;;;;;;22.83;11.75;;;;;;;;;;4971197;28;20423;-77
2021/07/27 04:29:47;;;;;;;21.80;10.38;;;;;;;;;;4972168;28;20030;-77
2021/07/27 04:32:13;;;;;;;20.83;11.10;;;;;;;;;;4971503;28;20062;-77
2021/07/27 04:34:38;;;;;;;26.13;11.07;;;;;;;;;;4969778;28;20035;-77
2021/07/27 04:37:03;;;;;;;18.83;10.93;;;;;;;;;;4971365;28;20023;-77
2021/07/27 04:39:29;;;;;;;18.25;10.50;;;;;;;;;;4971536;28;20033;-77
2021/07/27 04:41:55;;;;;;;21.60;10.60;;;;;;;;;;4973136;28;20506;-77
2021/07/27 04:44:20;;;;;;;18.80;10.70;;;;;;;;;;4964322;28;20031;-77
2021/07/27 04:46:47;;;;;;;19.27;10.85;;;;;;;;;;4971964;28;20054;-77
2021/07/27 04:49:15;;;;;;;19.77;11.38;;;;;;;;;;4971210;28;20050;-78
2021/07/27 04:51:41;;;;;;;20.50;11.40;;;;;;;;;;4977369;28;20045;-77
2021/07/27 04:54:08;;;;;;;18.52;11.02;;;;;;;;;;4975199;28;20027;-77
2021/07/27 04:56:34;;;;;;;16.80;10.63;;;;;;;;;;4969756;28;20065;-77
2021/07/27 04:59:02;;;;;;;18.42;11.05;;;;;;;;;;4971118;28;20066;-77
2021/07/27 05:01:28;;;;;;;17.75;10.95;;;;;;;;;;4970974;28;20533;-77
2021/07/27 05:03:56;;;;;;;24.63;11.07;;;;;;;;;;4971756;28;20030;-77
2021/07/27 05:06:22;;;;;;;23.17;11.30;;;;;;;;;;4970858;28;20095;-77
2021/07/27 05:08:48;;;;;;;23.02;11.95;;;;;;;;;;4971443;28;20034;-77
2021/07/27 05:11:14;;;;;;;17.85;11.45;;;;;;;;;;4970934;28;20562;-77
2021/07/27 05:13:39;;;;;;;19.80;10.95;;;;;;;;;;4972766;28;20033;-77
2021/07/27 05:16:10;;;;;;;22.38;11.68;;;;;;;;;;4969647;28;20053;-77
2021/07/27 05:18:36;;;;;;;18.05;12.13;;;;;;;;;;4975130;28;20102;-77
2021/07/27 05:21:01;;;;;;;17.42;11.40;;;;;;;;;;4974876;28;20026;-77
2021/07/27 05:23:30;;;;;;;22.17;11.55;;;;;;;;;;4975544;28;20113;-77
2021/07/27 05:25:55;;;;;;;16.23;11.50;;;;;;;;;;4974820;28;20034;-77
2021/07/27 05:28:21;;;;;;;18.55;11.10;;;;;;;;;;4975106;28;20113;-77
2021/07/27 05:30:46;;;;;;;18.48;12.20;;;;;;;;;;4974840;28;20109;-77
2021/07/27 05:33:12;;;;;;;18.83;11.50;;;;;;;;;;4974641;28;20546;-77
2021/07/27 05:35:38;;;;;;;19.70;11.52;;;;;;;;;;4974905;28;20043;-77
2021/07/27 05:38:04;;;;;;;20.02;11.68;;;;;;;;;;4974865;28;20035;-77
2021/07/27 05:40:31;;;;;;;27.73;12.38;;;;;;;;;;4974930;28;20057;-77
2021/07/27 05:42:57;;;;;;;23.33;11.80;;;;;;;;;;4981034;28;20479;-77
2021/07/27 05:45:24;;;;;;;15.50;11.90;;;;;;;;;;4974973;28;20027;-77
2021/07/27 05:47:50;;;;;;;22.60;11.50;;;;;;;;;;4974538;28;20039;-77
2021/07/27 05:50:15;;;;;;;15.32;11.05;;;;;;;;;;4973551;28;20042;-77
2021/07/27 05:52:41;;;;;;;17.17;11.15;;;;;;;;;;4976116;28;20039;-78
2021/07/27 05:55:07;;;;;;;18.38;11.00;;;;;;;;;;4966793;28;20018;-77
2021/07/27 05:57:32;;;;;;;18.88;11.88;;;;;;;;;;4974569;28;20110;-77
2021/07/27 05:59:58;;;;;;;15.18;10.95;;;;;;;;;;4973341;28;20106;-77
2021/07/27 06:02:23;;;;;;;15.68;10.35;;;;;;;;;;4974105;28;20355;-77
2021/07/27 06:04:49;;;;;;;15.65;10.43;;;;;;;;;;4967849;28;20035;-77
2021/07/27 06:07:14;;;;;;;16.35;11.02;;;;;;;;;;4972829;28;20054;-77
2021/07/27 06:09:40;;;;;;;18.05;10.68;;;;;;;;;;4974713;28;20035;-77
2021/07/27 06:12:08;;;;;;;15.68;11.10;;;;;;;;;;4974526;28;20027;-77
2021/07/27 06:14:33;;;;;;;15.73;10.30;;;;;;;;;;4972961;28;20406;-77
2021/07/27 06:16:59;;;;;;;18.42;10.80;;;;;;;;;;4974004;28;20026;-77
2021/07/27 06:19:25;;;;;;;17.92;11.35;;;;;;;;;;4973608;28;20037;-77
2021/07/27 06:21:51;;;;;;;17.17;10.73;;;;;;;;;;4974072;28;20026;-77
2021/07/27 06:24:17;;;;;;;17.52;10.35;;;;;;;;;;4973515;28;20042;-77
2021/07/27 06:26:42;;;;;;;13.40;10.18;;;;;;;;;;4974144;28;20504;-77
2021/07/27 06:29:08;;;;;;;17.83;9.98;;;;;;;;;;4974165;28;20023;-77
2021/07/27 06:31:34;;;;;;;13.02;9.70;;;;;;;;;;4973654;28;20042;-77
2021/07/27 06:34:00;;;;;;;15.20;9.43;;;;;;;;;;4973853;28;20391;-77
2021/07/27 06:36:28;;;;;;;12.63;9.23;;;;;;;;;;4966666;28;20543;-78
2021/07/27 06:38:57;;;;;;;14.40;9.93;;;;;;;;;;4973700;28;20537;-77
2021/07/27 06:41:22;;;;;;;16.92;9.35;;;;;;;;;;4977813;28;20429;-77
2021/07/27 06:43:48;;;;;;;14.20;9.50;;;;;;;;;;4990184;28;20089;-77
2021/07/27 06:46:14;;;;;;;12.82;9.40;;;;;;;;;;4974026;28;20023;-77
2021/07/27 06:48:40;;;;;;;16.00;10.15;;;;;;;;;;4973836;28;20072;-77
2021/07/27 06:51:08;;;;;;;14.68;9.75;;;;;;;;;;4972076;28;20030;-77
2021/07/27 06:53:34;;;;;;;12.70;9.25;;;;;;;;;;4973412;28;20030;-77
2021/07/27 06:55:59;;;;;;;11.48;9.02;;;;;;;;;;4973725;28;20034;-77
2021/07/27 06:58:25;;;;;;;12.13;9.30;;;;;;;;;;4973616;28;20027;-77
2021/07/27 07:00:50;;;;;;;12.80;9.35;;;;;;;;;;4973360;28;20034;-77
2021/07/27 07:03:15;;;;;;;14.30;8.90;;;;;;;;;;4972105;28;20174;-77
2021/07/27 07:05:42;;;;;;;11.32;8.80;;;;;;;;;;4973624;28;20381;-77
2021/07/27 07:08:08;;;;;;;11.57;8.50;;;;;;;;;;4973162;28;20023;-77
2021/07/27 07:10:33;;;;;;;15.52;9.13;;;;;;;;;;4973255;28;20385;-77
2021/07/27 07:12:58;;;;;;;14.00;9.20;;;;;;;;;;4973575;28;20371;-77
2021/07/27 07:15:24;;;;;;;13.10;8.43;;;;;;;;;;4971763;28;20058;-77
2021/07/27 07:17:50;;;;;;;11.25;8.32;;;;;;;;;;4972614;28;20101;-77
2021/07/27 07:20:15;;;;;;;10.65;7.80;;;;;;;;;;4971369;28;20036;-77
2021/07/27 07:22:41;;;;;;;13.15;8.52;;;;;;;;;;4970964;28;20035;-77
2021/07/27 07:25:07;;;;;;;11.18;8.00;;;;;;;;;;4971664;28;20370;-77
2021/07/27 07:27:32;;;;;;;11.57;8.80;;;;;;;;;;4970992;28;20093;-77
2021/07/27 07:29:58;;;;;;;10.70;8.20;;;;;;;;;;4974804;28;20022;-77
2021/07/27 07:32:23;;;;;;;10.60;8.38;;;;;;;;;;4971791;28;20031;-77
2021/07/27 07:34:49;;;;;;;13.25;7.65;;;;;;;;;;4971920;28;20105;-77
2021/07/27 07:37:15;;;;;;;11.15;7.75;;;;;;;;;;4970217;28;20450;-78
2021/07/27 07:39:41;;;;;;;12.23;8.27;;;;;;;;;;4972139;28;20364;-78
2021/07/27 07:42:07;;;;;;;12.88;8.93;;;;;;;;;;4980175;28;20018;-78
2021/07/27 07:44:36;;;;;;;13.57;8.60;;;;;;;;;;4972729;28;20027;-78
2021/07/27 07:47:02;;;;;;;13.98;8.55;;;;;;;;;;4973466;28;20038;-78
2021/07/27 07:49:28;;;;;;;12.75;8.90;;;;;;;;;;4973968;28;20403;-79
2021/07/27 07:51:56;;;;;;;13.60;9.43;;;;;;;;;;4974211;28;20030;-79
2021/07/27 07:54:24;;;;;;;13.70;9.25;;;;;;;;;;4973380;28;20093;-78
2021/07/27 07:56:50;;;;;;;16.58;9.52;;;;;;;;;;4972731;28;20026;-78
2021/07/27 07:59:16;;;;;;;20.58;9.30;;;;;;;;;;4971094;28;20049;-76
2021/07/27 08:01:45;;;;;;;13.57;9.70;;;;;;;;;;4971168;28;20054;-77
2021/07/27 08:04:16;;;;;;;18.17;9.65;;;;;;;;;;4971709;28;20030;-77
2021/07/27 08:06:42;;;;;;;16.60;10.07;;;;;;;;;;4972984;28;20031;-77
2021/07/27 08:09:07;;;;;;;13.02;10.25;;;;;;;;;;4971375;28;20084;-77
2021/07/27 08:11:33;;;;;;;15.18;10.27;;;;;;;;;;4972683;28;20046;-77
2021/07/27 08:13:59;;;;;;;14.90;10.57;;;;;;;;;;4972498;28;20049;-77
2021/07/27 08:16:25;;;;;;;17.90;10.63;;;;;;;;;;4972655;28;20073;-77
2021/07/27 08:18:51;;;;;;;17.63;10.65;;;;;;;;;;4972921;28;20097;-77
2021/07/27 08:21:21;;;;;;;14.80;11.10;;;;;;;;;;4972678;28;20427;-79
2021/07/27 08:23:48;;;;;;;14.98;11.00;;;;;;;;;;4973089;28;20033;-78
2021/07/27 08:26:14;;;;;;;15.25;11.85;;;;;;;;;;4973336;28;20034;-77
2021/07/27 08:28:40;;;;;;;19.52;12.07;;;;;;;;;;4973170;28;20031;-77
2021/07/27 08:31:05;;;;;;;17.70;11.63;;;;;;;;;;4972201;28;20022;-77
2021/07/27 08:33:31;;;;;;;19.23;11.35;;;;;;;;;;4973469;28;20038;-78
2021/07/27 08:35:58;;;;;;;18.00;11.77;;;;;;;;;;4971435;28;20544;-77
2021/07/27 08:38:23;;;;;;;14.50;12.15;;;;;;;;;;4972364;28;20096;-77
2021/07/27 08:40:50;;;;;;;15.52;11.27;;;;;;;;;;4972714;28;20061;-78
2021/07/27 08:43:18;;;;;;;15.38;11.75;;;;;;;;;;4963837;28;20027;-77
2021/07/27 08:45:44;;;;;;;15.60;11.43;;;;;;;;;;4969084;28;20034;-78
2021/07/27 08:48:11;;;;;;;19.73;11.68;;;;;;;;;;4966813;28;20171;-78
2021/07/27 08:50:38;;;;;;;17.58;12.60;;;;;;;;;;4968772;28;20065;-77
2021/07/27 08:53:03;;;;;;;14.95;11.50;;;;;;;;;;4972837;28;20106;-77
2021/07/27 08:55:29;;;;;;;15.75;11.95;;;;;;;;;;4972467;28;20125;-77
2021/07/27 08:57:58;;;;;;;16.13;11.95;;;;;;;;;;4970916;28;20098;-76
2021/07/27 09:00:27;;;;;;;15.27;12.27;;;;;;;;;;4976946;28;20018;-76
2021/07/27 09:02:53;;;;;;;17.75;11.70;;;;;;;;;;4979199;28;20566;-75
2021/07/27 09:05:19;;;;;;;18.00;11.90;;;;;;;;;;4970002;28;20408;-75
2021/07/27 09:07:45;;;;;;;18.35;12.27;;;;;;;;;;4971871;28;20183;-76
2021/07/27 09:10:15;;;;;;;15.52;11.70;;;;;;;;;;4971728;28;20125;-76
2021/07/27 09:12:54;;;;;;;16.83;12.60;;;;;;;;;;4972078;28;20031;-76
2021/07/27 09:15:21;;;;;;;15.25;11.95;;;;;;;;;;4964150;28;20349;-76
2021/07/27 09:18:03;;;;;;;17.40;11.45;;;;;;;;;;4971629;28;20015;-76
2021/07/27 09:20:40;;;;;;;16.45;12.27;;;;;;;;;;4971549;28;20031;-77
2021/07/27 09:23:12;;;;;;;16.13;12.13;;;;;;;;;;4971122;28;20463;-76
2021/07/27 09:25:44;;;;;;;16.73;12.52;;;;;;;;;;4970000;28;20031;-77
2021/07/27 09:28:10;;;;;;;17.73;12.27;;;;;;;;;;4971195;28;20045;-77
2021/07/27 09:30:38;;;;;;;16.80;12.27;;;;;;;;;;4973753;28;20023;-77
2021/07/27 09:33:05;;;;;;;19.30;12.80;;;;;;;;;;4969584;28;20027;-77
2021/07/27 09:35:32;;;;;;;20.85;12.70;;;;;;;;;;4972056;28;20054;-75
2021/07/27 09:38:05;;;;;;;19.33;12.90;;;;;;;;;;4970556;28;20037;-75
2021/07/27 09:40:31;;;;;;;15.27;12.35;;;;;;;;;;4970935;28;20041;-74
2021/07/27 09:42:58;;;;;;;23.88;13.40;;;;;;;;;;4972786;28;20459;-75
2021/07/27 09:45:24;;;;;;;20.25;12.32;;;;;;;;;;4972227;28;20073;-75
2021/07/27 09:47:53;;;;;;;19.73;13.43;;;;;;;;;;4972523;28;20137;-75
2021/07/27 09:50:21;;;;;;;17.05;12.65;;;;;;;;;;4969302;28;20027;-75
2021/07/27 09:52:46;;;;;;;20.88;12.95;;;;;;;;;;4981973;28;20022;-76
2021/07/27 09:55:13;;;;;;;23.60;13.05;;;;;;;;;;4967455;28;20114;-76
2021/07/27 09:57:39;;;;;;;20.38;13.32;;;;;;;;;;4976355;28;20839;-76
2021/07/27 10:00:06;;;;;;;18.63;13.07;;;;;;;;;;4973189;28;20035;-76
2021/07/27 10:02:33;;;;;;;24.05;14.10;;;;;;;;;;4972777;28;20614;-75
2021/07/27 10:04:59;;;;;;;18.85;14.27;;;;;;;;;;4971080;28;20115;-75
2021/07/27 10:07:31;;;;;;;23.27;13.05;;;;;;;;;;4985048;28;20039;-76
2021/07/27 10:10:08;;;;;;;23.65;14.35;;;;;;;;;;4976300;28;20027;-76
2021/07/27 10:12:37;;;;;;;22.75;13.80;;;;;;;;;;4976048;28;20027;-75
2021/07/27 10:15:14;;;;;;;20.58;13.13;;;;;;;;;;4975492;28;20113;-75
2021/07/27 10:17:50;;;;;;;30.05;14.15;;;;;;;;;;4969373;28;20027;-76
2021/07/27 10:20:27;;;;;;;18.10;13.20;;;;;;;;;;4973773;28;20041;-76
2021/07/27 10:22:53;;;;;;;20.77;14.13;;;;;;;;;;4973408;28;20057;-76
2021/07/27 10:25:25;;;;;;;19.10;13.40;;;;;;;;;;4977668;28;20037;-76
2021/07/27 10:27:52;;;;;;;19.95;13.95;;;;;;;;;;4977663;28;20039;-76
2021/07/27 10:30:31;;;;;;;15.32;13.70;;;;;;;;;;4976483;28;20031;-76
2021/07/27 10:32:57;;;;;;;18.98;13.38;;;;;;;;;;4981005;28;20027;-76
2021/07/27 10:35:27;;;;;;;17.08;12.57;;;;;;;;;;4974726;28;20074;-77
2021/07/27 10:37:53;;;;;;;15.43;12.05;;;;;;;;;;4975800;28;20031;-77
2021/07/27 10:40:30;;;;;;;19.42;12.85;;;;;;;;;;4979317;28;20506;-77
2021/07/27 10:42:56;;;;;;;15.65;11.68;;;;;;;;;;4979727;28;20085;-77
2021/07/27 10:45:22;;;;;;;17.70;11.43;;;;;;;;;;4976076;28;20375;-78
2021/07/27 10:47:50;;;;;;;18.60;11.20;;;;;;;;;;4973930;28;20041;-78
2021/07/27 10:50:16;;;;;;;17.40;12.23;;;;;;;;;;4975275;28;20068;-80
2021/07/27 10:52:49;;;;;;;19.73;11.45;;;;;;;;;;4974925;28;20150;-78
2021/07/27 10:55:15;;;;;;;20.27;10.95;;;;;;;;;;4974467;28;20019;-78
2021/07/27 10:57:52;;;;;;;20.05;11.38;;;;;;;;;;4973574;28;20038;-79
2021/07/27 11:00:29;;;;;;;17.70;11.43;;;;;;;;;;4972701;28;20031;-79
2021/07/27 11:02:57;;;;;;;17.85;10.23;;;;;;;;;;4972750;28;20022;-79
2021/07/27 11:05:30;;;;;;;15.48;10.18;;;;;;;;;;4972537;28;20029;-79
2021/07/27 11:07:55;;;;;;;;;;;;;;;;;;4973490;28;20062;-79
2021/07/27 11:10:22;;;;;;;15.88;10.10;;;;;;;;;;4973147;28;19913;-79
2021/07/27 11:12:48;;;;;;;14.23;9.75;;;;;;;;;;4973894;28;20038;-78
2021/07/27 11:15:20;;;;;;;15.85;9.65;;;;;;;;;;4974862;28;20033;-79
2021/07/27 11:17:50;;;;;;;18.15;9.77;;;;;;;;;;4974433;28;20030;-78
2021/07/27 11:20:22;;;;;;;14.20;9.45;;;;;;;;;;4975279;28;20027;-80
2021/07/27 11:22:54;;;;;;;12.43;8.57;;;;;;;;;;4974047;28;20521;-77
2021/07/27 11:25:24;;;;;;;13.40;8.90;;;;;;;;;;4976713;28;20034;-78
2021/07/27 11:27:50;;;;;;;12.60;8.60;;;;;;;;;;4975841;28;20622;-78
2021/07/27 11:30:18;;;;;;;10.05;8.75;;;;;;;;;;4976335;28;20026;-78
2021/07/27 11:32:47;;;;;;;13.02;8.68;;;;;;;;;;4973353;28;20026;-78
2021/07/27 11:35:15;;;;;;;12.38;9.32;;;;;;;;;;4975209;28;20051;-80
2021/07/27 11:37:44;;;;;;;14.57;9.45;;;;;;;;;;4974128;28;20501;-79
2021/07/27 11:40:29;;;;;;;18.35;10.52;;;;;;;;;;4975451;28;20031;-79
2021/07/27 11:43:30;;;;;;;12.27;9.48;;;;;;;;;;4992885;28;20084;-79
2021/07/27 11:46:13;;;;;;;15.93;10.35;;;;;;;;;;4995254;28;20038;-79
2021/07/27 11:48:39;;;;;;;;;;;;;;;;;;4995651;28;20478;-79
2021/07/27 11:51:05;;;;;;;16.35;10.70;;;;;;;;;;4995372;28;20040;-79
2021/07/27 11:53:36;;;;;;;13.23;10.00;;;;;;;;;;4975607;28;20027;-79
2021/07/27 11:56:17;;;;;;;14.10;9.75;;;;;;;;;;4974884;28;20110;-79
2021/07/27 11:58:46;;;;;;;14.80;10.45;;;;;;;;;;4976328;28;20065;-79
2021/07/27 12:01:11;;;;;;;18.55;10.60;;;;;;;;;;4975518;28;20034;-79
2021/07/27 12:03:39;;;;;;;13.43;9.88;;;;;;;;;;4973446;28;20030;-79
2021/07/27 12:06:13;;;;;;;12.32;9.45;;;;;;;;;;4973232;28;20470;-80
2021/07/27 12:08:41;;;;;;;12.25;9.27;;;;;;;;;;4972830;28;20101;-79
2021/07/27 12:11:07;;;;;;;13.13;9.88;;;;;;;;;;4972402;28;20085;-80
2021/07/27 12:13:33;;;;;;;13.20;10.70;;;;;;;;;;4981006;28;20509;-79
2021/07/27 12:15:59;;;;;;;16.48;11.10;;;;;;;;;;4970629;28;20026;-79
2021/07/27 12:18:25;;;;;;;16.02;11.30;;;;;;;;;;4976616;28;20086;-79
2021/07/27 12:20:51;;;;;;;21.25;11.60;;;;;;;;;;4977587;28;20107;-79
2021/07/27 12:23:18;;;;;;;18.02;11.23;;;;;;;;;;4972146;28;20050;-80
2021/07/27 12:25:44;;;;;;;16.55;11.38;;;;;;;;;;4973140;28;20022;-78
2021/07/27 12:28:10;;;;;;;14.90;10.93;;;;;;;;;;4972682;28;20067;-79
2021/07/27 12:30:37;;;;;;;13.93;11.07;;;;;;;;;;4972395;28;20030;-79
2021/07/27 12:33:02;;;;;;;22.77;11.55;;;;;;;;;;4970906;28;20038;-79
2021/07/27 12:35:28;;;;;;;16.30;11.25;;;;;;;;;;4972166;28;20042;-79
2021/07/27 12:37:53;;;;;;;16.55;11.27;;;;;;;;;;4973718;28;20035;-79
2021/07/27 12:40:18;;;;;;;24.13;11.50;;;;;;;;;;4974750;28;20101;-79
2021/07/27 12:42:44;;;;;;;14.80;10.63;;;;;;;;;;4988978;28;20042;-78
2021/07/27 12:45:10;;;;;;;13.13;10.15;;;;;;;;;;4992457;28;20030;-79
2021/07/27 12:47:36;;;;;;;11.93;10.20;;;;;;;;;;4992818;28;20045;-79
2021/07/27 12:50:06;;;;;;;12.80;8.45;;;;;;;;;;4992842;28;20085;-79
2021/07/27 12:52:32;;;;;;;8.77;7.57;;;;;;;;;;4979562;28;20034;-79
2021/07/27 12:54:57;;;;;;;8.85;7.00;;;;;;;;;;4973498;28;20030;-79
2021/07/27 12:57:23;;;;;;;8.32;6.80;;;;;;;;;;4972481;28;20014;-79
2021/07/27 12:59:48;;;;;;;9.18;7.30;;;;;;;;;;4972656;28;20048;-79
2021/07/27 13:02:15;;;;;;;12.27;7.35;;;;;;;;;;4973448;28;20027;-79
2021/07/27 13:04:40;;;;;;;9.05;7.43;;;;;;;;;;4971959;28;20031;-79
2021/07/27 13:07:07;;;;;;;9.80;7.35;;;;;;;;;;4972387;28;20029;-79
2021/07/27 13:09:32;;;;;;;9.63;7.30;;;;;;;;;;4971630;28;20034;-79
2021/07/27 13:11:57;;;;;;;12.15;7.90;;;;;;;;;;4972357;28;20130;-79
2021/07/27 13:14:23;;;;;;;10.98;8.43;;;;;;;;;;4971266;28;20023;-79
2021/07/27 13:16:48;;;;;;;19.65;9.50;;;;;;;;;;4971991;28;20077;-79
2021/07/27 13:19:14;;;;;;;13.10;8.50;;;;;;;;;;4971955;28;20019;-79
2021/07/27 13:21:39;;;;;;;10.73;8.60;;;;;;;;;;4971727;28;20045;-79
2021/07/27 13:24:05;;;;;;;11.82;9.35;;;;;;;;;;4971964;28;20037;-79
2021/07/27 13:26:32;;;;;;;14.60;10.55;;;;;;;;;;4972178;28;20113;-79
2021/07/27 13:28:57;;;;;;;13.35;9.82;;;;;;;;;;4972330;28;20069;-79
2021/07/27 13:31:23;;;;;;;15.75;10.38;;;;;;;;;;4972343;28;20422;-79
2021/07/27 13:33:50;;;;;;;14.80;11.15;;;;;;;;;;4972063;28;20022;-79
2021/07/27 13:36:15;;;;;;;13.60;9.85;;;;;;;;;;4975887;28;20027;-79
2021/07/27 13:38:42;;;;;;;13.18;10.45;;;;;;;;;;4975198;28;20467;-79
2021/07/27 13:41:08;;;;;;;14.85;10.43;;;;;;;;;;4977053;28;20054;-79
2021/07/27 13:43:34;;;;;;;12.23;10.75;;;;;;;;;;4994832;28;20057;-79
2021/07/27 13:46:00;;;;;;;13.10;11.20;;;;;;;;;;4993403;28;20034;-79
2021/07/27 13:48:26;;;;;;;16.20;12.02;;;;;;;;;;4994981;28;20048;-79
2021/07/27 13:50:51;;;;;;;19.17;12.35;;;;;;;;;;4994742;28;20105;-78
2021/07/27 13:53:16;;;;;;;18.92;12.68;;;;;;;;;;4990998;28;20026;-78
2021/07/27 13:55:42;;;;;;;14.10;12.25;;;;;;;;;;4975189;28;20390;-78
2021/07/27 13:58:07;;;;;;;16.10;12.98;;;;;;;;;;4975568;28;20021;-77
2021/07/27 14:00:33;;;;;;;16.48;13.88;;;;;;;;;;4975037;28;20019;-78
2021/07/27 14:02:58;;;;;;;16.63;13.68;;;;;;;;;;4975428;28;20033;-78
2021/07/27 14:05:23;;;;;;;20.52;13.45;;;;;;;;;;4975192;28;20475;-77
2021/07/27 14:07:50;;;;;;;20.20;13.02;;;;;;;;;;4974859;28;20027;-77
2021/07/27 14:10:16;;;;;;;17.40;13.70;;;;;;;;;;4975094;28;20087;-77
2021/07/27 14:12:41;;;;;;;19.05;12.88;;;;;;;;;;4974735;28;20031;-78
2021/07/27 14:15:07;;;;;;;20.80;13.65;;;;;;;;;;4974953;28;20125;-77
2021/07/27 14:17:34;;;;;;;19.70;14.20;;;;;;;;;;4974950;28;20027;-78
2021/07/27 14:20:01;;;;;;;21.05;13.85;;;;;;;;;;4974798;28;20034;-78
2021/07/27 14:22:26;;;;;;;17.58;14.07;;;;;;;;;;4975116;28;20474;-78
2021/07/27 14:24:52;;;;;;;16.50;13.32;;;;;;;;;;4974754;28;20058;-78
2021/07/27 14:27:18;;;;;;;17.73;13.57;;;;;;;;;;4974688;28;20471;-78
2021/07/27 14:29:44;;;;;;;18.55;13.18;;;;;;;;;;4974556;28;20034;-78
2021/07/27 14:32:09;;;;;;;17.88;13.88;;;;;;;;;;4974770;28;20057;-78
2021/07/27 14:34:35;;;;;;;17.67;14.30;;;;;;;;;;4974584;28;20050;-77
2021/07/27 14:37:03;;;;;;;17.67;14.60;;;;;;;;;;4975296;28;20471;-78
2021/07/27 14:39:28;;;;;;;21.52;15.45;;;;;;;;;;4974889;28;20113;-77
2021/07/27 14:41:53;;;;;;;20.52;16.17;;;;;;;;;;4983084;28;20446;-76
2021/07/27 14:44:19;;;;;;;20.10;15.48;;;;;;;;;;4994022;28;20026;-76
2021/07/27 14:46:44;;;;;;;21.67;15.10;;;;;;;;;;4993491;28;20425;-76